Time;durP1;ratioP1;P1;durP2;ratioP2;P2;SDS_P1;SDS_P2;PMS_P1;PMS_P2;Temp;Humidity;BMP_temperature;BMP_pressure;BME280_temperature;BME280_humidity;BME280_pressure;Samples;Min_cycle;Max_cycle;Signal;HPM_P1;HPM_P2
2023/09/13 00:00:30;;;;;;;73.75;47.00;;;;;;;;;;5027404;28;20049;-59
2023/09/13 00:02:56;;;;;;;70.63;45.63;;;;;;;;;;5027150;28;20047;-59
2023/09/13 00:05:23;;;;;;;78.57;45.95;;;;;;;;;;5024396;28;20034;-59
2023/09/13 00:07:49;;;;;;;77.05;46.92;;;;;;;;;;5024404;28;20022;-59
2023/09/13 00:10:15;;;;;;;81.53;47.35;;;;;;;;;;5024461;28;20044;-59
2023/09/13 00:12:41;;;;;;;75.32;47.70;;;;;;;;;;5024120;28;20132;-59
2023/09/13 00:15:07;;;;;;;76.97;47.58;;;;;;;;;;5029573;28;20036;-58
2023/09/13 00:17:33;;;;;;;77.32;46.20;;;;;;;;;;5026599;28;20037;-58
2023/09/13 00:20:03;;;;;;;83.10;49.00;;;;;;;;;;5025036;28;20079;-59
2023/09/13 00:22:28;;;;;;;82.70;48.95;;;;;;;;;;5023455;28;20030;-58
2023/09/13 00:24:54;;;;;;;81.40;47.85;;;;;;;;;;5024126;28;20099;-59
2023/09/13 00:27:20;;;;;;;79.50;47.30;;;;;;;;;;5024339;28;20040;-59
2023/09/13 00:29:46;;;;;;;80.45;47.53;;;;;;;;;;5026931;28;20037;-59
2023/09/13 00:32:12;;;;;;;81.80;47.67;;;;;;;;;;5024293;28;20318;-59
2023/09/13 00:34:38;;;;;;;78.75;45.30;;;;;;;;;;5024894;28;20103;-59
2023/09/13 00:37:04;;;;;;;80.28;44.83;;;;;;;;;;5027085;28;20030;-59
2023/09/13 00:39:30;;;;;;;73.75;42.88;;;;;;;;;;5022412;28;20128;-59
2023/09/13 00:41:57;;;;;;;73.32;42.78;;;;;;;;;;5020444;28;20037;-59
2023/09/13 00:44:23;;;;;;;74.15;42.97;;;;;;;;;;5020216;28;20645;-59
2023/09/13 00:46:50;;;;;;;64.82;40.38;;;;;;;;;;5031429;28;20147;-59
2023/09/13 00:49:16;;;;;;;67.55;39.05;;;;;;;;;;5024929;28;20080;-59
2023/09/13 00:51:42;;;;;;;64.75;37.92;;;;;;;;;;5024235;28;20073;-59
2023/09/13 00:54:09;;;;;;;65.28;37.97;;;;;;;;;;5027033;28;20123;-59
2023/09/13 00:56:36;;;;;;;58.20;35.42;;;;;;;;;;5023164;28;20061;-58
2023/09/13 00:59:02;;;;;;;60.55;35.53;;;;;;;;;;5024102;28;20091;-58
2023/09/13 01:01:28;;;;;;;62.53;35.70;;;;;;;;;;5022948;28;20033;-58
2023/09/13 01:03:54;;;;;;;59.55;34.10;;;;;;;;;;5024316;28;20043;-58
2023/09/13 01:06:20;;;;;;;57.53;33.55;;;;;;;;;;5026241;28;20129;-59
2023/09/13 01:08:47;;;;;;;54.63;33.65;;;;;;;;;;5030258;28;20116;-59
2023/09/13 01:11:13;;;;;;;61.53;34.75;;;;;;;;;;5023884;28;20051;-58
2023/09/13 01:13:39;;;;;;;54.13;32.28;;;;;;;;;;5025595;28;20079;-58
2023/09/13 01:16:09;;;;;;;54.53;32.80;;;;;;;;;;5023081;28;20056;-59
2023/09/13 01:18:41;;;;;;;57.03;32.78;;;;;;;;;;5022599;28;20029;-58
2023/09/13 01:21:18;;;;;;;57.47;33.90;;;;;;;;;;5026090;28;20117;-58
2023/09/13 01:23:56;;;;;;;58.13;34.42;;;;;;;;;;5027950;28;20471;-58
2023/09/13 01:26:31;;;;;;;58.65;33.40;;;;;;;;;;5029973;28;20045;-58
2023/09/13 01:28:59;;;;;;;61.25;33.63;;;;;;;;;;5019112;28;20068;-59
2023/09/13 01:31:27;;;;;;;62.38;34.20;;;;;;;;;;5028108;28;20075;-59
2023/09/13 01:33:53;;;;;;;67.18;36.40;;;;;;;;;;5023492;28;20043;-59
2023/09/13 01:36:19;;;;;;;53.33;33.00;;;;;;;;;;5033384;28;20699;-59
2023/09/13 01:38:45;;;;;;;68.20;36.95;;;;;;;;;;5027745;28;20044;-59
2023/09/13 01:41:14;;;;;;;74.93;40.15;;;;;;;;;;5032296;28;20076;-59
2023/09/13 01:43:41;;;;;;;73.90;39.05;;;;;;;;;;5026676;28;20380;-58
2023/09/13 01:46:08;;;;;;;82.85;41.22;;;;;;;;;;5030831;28;20088;-59
2023/09/13 01:48:35;;;;;;;79.97;42.17;;;;;;;;;;5028622;28;20048;-58
2023/09/13 01:51:02;;;;;;;77.70;41.88;;;;;;;;;;5026813;28;20107;-57
2023/09/13 01:53:28;;;;;;;78.63;43.78;;;;;;;;;;5027825;28;20036;-58
2023/09/13 01:55:55;;;;;;;81.82;43.20;;;;;;;;;;5037130;28;20034;-59
2023/09/13 01:58:21;;;;;;;79.90;41.72;;;;;;;;;;5027097;28;20096;-58
2023/09/13 02:00:47;;;;;;;77.75;42.83;;;;;;;;;;5031195;28;20030;-59
2023/09/13 02:03:13;;;;;;;80.10;43.22;;;;;;;;;;5028281;28;20034;-58
2023/09/13 02:05:39;;;;;;;93.80;46.05;;;;;;;;;;5027046;28;20037;-58
2023/09/13 02:08:05;;;;;;;94.07;47.80;;;;;;;;;;5032393;28;20087;-58
2023/09/13 02:10:31;;;;;;;91.30;46.20;;;;;;;;;;5024762;28;20037;-59
2023/09/13 02:13:00;;;;;;;104.45;50.50;;;;;;;;;;5027885;28;20052;-58
2023/09/13 02:15:27;;;;;;;100.75;49.90;;;;;;;;;;5032165;28;20115;-58
2023/09/13 02:17:53;;;;;;;99.22;49.72;;;;;;;;;;5029237;28;20737;-59
2023/09/13 02:20:19;;;;;;;106.90;53.00;;;;;;;;;;5029019;28;20061;-59
2023/09/13 02:22:45;;;;;;;108.55;52.95;;;;;;;;;;5028156;28;20080;-59
2023/09/13 02:25:11;;;;;;;113.93;54.85;;;;;;;;;;5021945;28;20065;-59
2023/09/13 02:27:37;;;;;;;116.30;56.17;;;;;;;;;;5031229;28;20047;-59
2023/09/13 02:30:06;;;;;;;112.13;54.38;;;;;;;;;;5031187;28;20033;-59
2023/09/13 02:32:32;;;;;;;117.18;54.97;;;;;;;;;;5023823;28;20446;-59
2023/09/13 02:34:58;;;;;;;118.55;57.67;;;;;;;;;;5028919;28;20037;-59
2023/09/13 02:37:24;;;;;;;120.53;56.55;;;;;;;;;;5026452;28;20057;-59
2023/09/13 02:39:50;;;;;;;118.57;57.40;;;;;;;;;;5030733;28;20049;-59
2023/09/13 02:42:16;;;;;;;122.88;59.20;;;;;;;;;;5027167;28;20048;-59
2023/09/13 02:44:42;;;;;;;124.78;61.13;;;;;;;;;;5027858;28;20037;-59
2023/09/13 02:47:08;;;;;;;129.27;60.72;;;;;;;;;;5028590;28;20052;-60
2023/09/13 02:49:34;;;;;;;126.97;60.63;;;;;;;;;;5037350;28;20098;-59
2023/09/13 02:52:00;;;;;;;127.93;60.30;;;;;;;;;;5025935;28;20029;-60
2023/09/13 02:54:26;;;;;;;120.13;58.97;;;;;;;;;;5027084;28;20025;-59
2023/09/13 02:56:55;;;;;;;121.28;59.58;;;;;;;;;;5028154;28;20120;-58
2023/09/13 02:59:21;;;;;;;117.90;57.53;;;;;;;;;;5029870;28;20045;-58
2023/09/13 03:01:48;;;;;;;118.45;58.75;;;;;;;;;;5038823;28;20175;-59
2023/09/13 03:04:14;;;;;;;128.68;61.70;;;;;;;;;;5026489;28;20048;-59
2023/09/13 03:06:40;;;;;;;125.53;60.65;;;;;;;;;;5024119;28;20038;-59
2023/09/13 03:09:06;;;;;;;123.45;60.38;;;;;;;;;;5024127;28;20116;-59
2023/09/13 03:11:32;;;;;;;120.40;58.35;;;;;;;;;;5026049;28;20029;-60
2023/09/13 03:13:58;;;;;;;127.15;58.30;;;;;;;;;;5027417;28;20496;-60
2023/09/13 03:16:24;;;;;;;106.78;55.53;;;;;;;;;;5026018;28;20041;-59
2023/09/13 03:18:51;;;;;;;110.72;57.40;;;;;;;;;;5028918;28;20500;-60
2023/09/13 03:21:20;;;;;;;114.55;57.67;;;;;;;;;;5024412;28;20029;-59
2023/09/13 03:23:50;;;;;;;117.35;58.70;;;;;;;;;;5028551;28;20033;-59
2023/09/13 03:26:20;;;;;;;125.30;58.33;;;;;;;;;;5028663;28;20113;-60
2023/09/13 03:28:47;;;;;;;123.85;58.80;;;;;;;;;;5025974;28;20025;-59
2023/09/13 03:31:14;;;;;;;115.55;57.33;;;;;;;;;;5026181;28;20497;-60
2023/09/13 03:33:40;;;;;;;124.47;59.33;;;;;;;;;;5058621;28;20025;-59
2023/09/13 03:36:08;;;;;;;123.03;58.75;;;;;;;;;;5026706;28;20038;-58
2023/09/13 03:38:34;;;;;;;122.07;60.67;;;;;;;;;;5021366;28;20037;-59
2023/09/13 03:41:01;;;;;;;125.47;61.92;;;;;;;;;;5028621;28;20045;-59
2023/09/13 03:43:27;;;;;;;98.60;50.45;;;;;;;;;;5032519;28;20362;-59
2023/09/13 03:45:53;;;;;;;61.40;40.67;;;;;;;;;;5029860;28;20045;-60
2023/09/13 03:48:19;;;;;;;64.93;41.25;;;;;;;;;;5025539;28;20384;-58
2023/09/13 03:50:45;;;;;;;72.60;46.17;;;;;;;;;;5029170;28;20591;-58
2023/09/13 03:53:10;;;;;;;84.80;48.38;;;;;;;;;;5032983;28;20072;-58
2023/09/13 03:55:36;;;;;;;98.07;52.92;;;;;;;;;;5027351;28;20033;-58
2023/09/13 03:58:03;;;;;;;97.88;52.70;;;;;;;;;;5029250;28;20026;-59
2023/09/13 04:00:29;;;;;;;106.85;55.28;;;;;;;;;;5024456;28;20722;-59
2023/09/13 04:02:55;;;;;;;119.82;60.80;;;;;;;;;;5027614;28;20038;-59
2023/09/13 04:05:20;;;;;;;131.68;62.88;;;;;;;;;;5022535;28;20556;-58
2023/09/13 04:07:46;;;;;;;122.28;58.50;;;;;;;;;;5028704;28;20116;-59
2023/09/13 04:10:12;;;;;;;124.50;59.72;;;;;;;;;;5025802;28;20037;-59
2023/09/13 04:12:38;;;;;;;125.95;58.42;;;;;;;;;;5031808;28;20137;-59
2023/09/13 04:15:05;;;;;;;119.78;60.05;;;;;;;;;;5036182;28;20082;-59
2023/09/13 04:17:31;;;;;;;125.22;61.00;;;;;;;;;;5029524;28;20492;-59
2023/09/13 04:19:57;;;;;;;133.55;62.65;;;;;;;;;;5026746;28;20140;-59
2023/09/13 04:22:23;;;;;;;132.98;61.85;;;;;;;;;;5024937;28;20045;-60
2023/09/13 04:24:49;;;;;;;126.13;61.65;;;;;;;;;;5023331;28;20439;-60
2023/09/13 04:27:21;;;;;;;130.20;59.15;;;;;;;;;;5055553;28;20033;-59
2023/09/13 04:29:47;;;;;;;132.55;60.05;;;;;;;;;;5028790;28;20106;-59
2023/09/13 04:32:13;;;;;;;138.68;63.38;;;;;;;;;;5024000;28;20080;-59
2023/09/13 04:34:39;;;;;;;130.00;61.55;;;;;;;;;;5030184;28;20033;-60
2023/09/13 04:37:05;;;;;;;117.25;57.78;;;;;;;;;;5031488;28;20102;-59
2023/09/13 04:39:32;;;;;;;132.50;60.20;;;;;;;;;;5027950;28;20132;-59
2023/09/13 04:41:58;;;;;;;121.38;57.70;;;;;;;;;;5034065;28;20057;-59
2023/09/13 04:44:25;;;;;;;127.22;58.78;;;;;;;;;;5024954;28;20447;-59
2023/09/13 04:46:51;;;;;;;126.47;58.85;;;;;;;;;;5035112;28;20136;-60
2023/09/13 04:49:17;;;;;;;113.43;57.47;;;;;;;;;;5021383;28;20386;-59
2023/09/13 04:51:43;;;;;;;132.00;59.60;;;;;;;;;;5025526;28;20056;-59
2023/09/13 04:54:09;;;;;;;121.28;58.83;;;;;;;;;;5028058;28;20041;-59
2023/09/13 04:56:35;;;;;;;131.13;58.92;;;;;;;;;;5028574;28;20485;-59
2023/09/13 04:59:01;;;;;;;125.57;59.75;;;;;;;;;;5026905;28;20495;-59
2023/09/13 05:01:27;;;;;;;119.95;58.38;;;;;;;;;;5027252;28;20033;-59
2023/09/13 05:03:53;;;;;;;125.95;58.33;;;;;;;;;;5022546;28;20041;-60
2023/09/13 05:06:19;;;;;;;88.93;46.45;;;;;;;;;;5027408;28;20118;-60
2023/09/13 05:08:45;;;;;;;72.75;43.53;;;;;;;;;;5027411;28;20030;-57
2023/09/13 05:11:11;;;;;;;78.63;46.38;;;;;;;;;;5031561;28;20060;-58
2023/09/13 05:13:38;;;;;;;84.90;49.08;;;;;;;;;;5028645;28;20044;-59
2023/09/13 05:16:04;;;;;;;86.13;48.25;;;;;;;;;;5027535;28;20021;-58
2023/09/13 05:18:30;;;;;;;86.32;48.63;;;;;;;;;;5032096;28;20033;-57
2023/09/13 05:20:56;;;;;;;90.70;49.13;;;;;;;;;;5031385;28;20025;-58
2023/09/13 05:23:22;;;;;;;90.07;48.28;;;;;;;;;;5030518;28;20024;-57
2023/09/13 05:25:48;;;;;;;92.82;51.10;;;;;;;;;;5010883;28;20033;-57
2023/09/13 05:28:15;;;;;;;99.28;51.95;;;;;;;;;;5020490;28;20200;-57
2023/09/13 05:30:42;;;;;;;94.65;52.40;;;;;;;;;;5028333;28;20042;-59
2023/09/13 05:33:08;;;;;;;98.80;51.60;;;;;;;;;;5024665;28;20038;-59
2023/09/13 05:35:34;;;;;;;86.70;49.22;;;;;;;;;;5029775;28;20370;-58
2023/09/13 05:38:00;;;;;;;83.70;48.17;;;;;;;;;;5030496;28;20044;-59
2023/09/13 05:40:28;;;;;;;87.90;48.45;;;;;;;;;;5026799;28;20033;-58
2023/09/13 05:42:53;;;;;;;84.15;47.60;;;;;;;;;;5027914;28;20480;-59
2023/09/13 05:45:19;;;;;;;87.70;47.42;;;;;;;;;;5032138;28;20113;-59
2023/09/13 05:47:48;;;;;;;92.95;49.80;;;;;;;;;;5024284;28;20029;-57
2023/09/13 05:50:14;;;;;;;90.78;50.28;;;;;;;;;;5029940;28;20040;-58
2023/09/13 05:52:40;;;;;;;88.95;49.08;;;;;;;;;;5011928;28;20041;-57
2023/09/13 05:55:07;;;;;;;91.75;47.75;;;;;;;;;;5021016;28;20669;-58
2023/09/13 05:57:33;;;;;;;93.93;49.70;;;;;;;;;;5025325;28;20030;-57
2023/09/13 05:59:59;;;;;;;86.45;47.17;;;;;;;;;;5020810;28;20032;-57
2023/09/13 06:02:25;;;;;;;84.68;47.30;;;;;;;;;;5032015;28;20492;-57
2023/09/13 06:04:50;;;;;;;92.03;48.47;;;19.70;99.90;;;;;;5032653;28;20037;-58
2023/09/13 06:07:18;;;;;;;87.95;47.20;;;19.50;99.90;;;;;;5012765;28;20025;-59
2023/09/13 06:09:46;;;;;;;135.02;86.05;;;19.50;99.90;;;;;;5013731;28;20030;-58
2023/09/13 06:12:13;;;;;;;97.90;50.78;;;;;;;;;;5005998;28;20136;-58
2023/09/13 06:14:40;;;;;;;93.50;48.78;;;19.60;99.90;;;;;;5009675;28;20161;-57
2023/09/13 06:17:05;;;;;;;97.13;49.70;;;19.60;99.90;;;;;;5002137;28;20117;-58
2023/09/13 06:19:32;;;;;;;92.00;49.63;;;;;;;;;;5017750;28;20126;-57
2023/09/13 06:21:57;;;;;;;94.50;49.25;;;19.70;99.90;;;;;;5044174;28;20072;-57
2023/09/13 06:24:26;;;;;;;99.13;51.42;;;;;;;;;;5007460;28;20045;-60
2023/09/13 06:26:52;;;;;;;104.70;51.13;;;;;;;;;;5009141;28;20435;-58
2023/09/13 06:29:18;;;;;;;95.68;49.80;;;;;;;;;;5008014;28;20623;-57
2023/09/13 06:31:44;;;;;;;99.25;50.25;;;;;;;;;;5007790;28;20041;-58
2023/09/13 06:34:10;;;;;;;98.78;49.75;;;;;;;;;;5002656;28;20394;-57
2023/09/13 06:36:36;;;;;;;91.30;48.33;;;;;;;;;;5003917;28;20030;-58
2023/09/13 06:39:02;;;;;;;97.38;50.13;;;;;;;;;;5006672;28;20062;-57
2023/09/13 06:41:28;;;;;;;95.13;50.15;;;;;;;;;;5005596;28;20046;-57
2023/09/13 06:43:54;;;;;;;94.07;48.22;;;;;;;;;;5007155;28;20038;-58
2023/09/13 06:46:20;;;;;;;90.95;47.20;;;;;;;;;;5008735;28;20121;-58
2023/09/13 06:48:46;;;;;;;93.75;49.55;;;;;;;;;;5008485;28;20461;-58
2023/09/13 06:51:12;;;;;;;93.25;47.38;;;;;;;;;;5007443;28;20139;-60
2023/09/13 06:53:38;;;;;;;95.65;50.58;;;;;;;;;;5004730;28;20026;-58
2023/09/13 06:56:04;;;;;;;88.45;48.35;;;;;;;;;;5008547;28;20050;-57
2023/09/13 06:58:30;;;;;;;97.20;48.28;;;;;;;;;;5003200;28;20080;-58
2023/09/13 07:00:56;;;;;;;91.20;48.22;;;;;;;;;;5025028;28;20069;-58
2023/09/13 07:03:22;;;;;;;96.15;49.78;;;;;;;;;;5014929;28;20120;-58
2023/09/13 07:05:50;;;;;;;98.45;49.10;;;;;;;;;;5002120;28;20137;-58
2023/09/13 07:08:16;;;;;;;96.32;49.13;;;;;;;;;;5011435;28;20034;-57
2023/09/13 07:10:42;;;;;;;90.15;48.03;;;;;;;;;;5020529;28;20529;-59
2023/09/13 07:13:08;;;;;;;89.32;47.35;;;;;;;;;;5019464;28;20057;-57
2023/09/13 07:15:34;;;;;;;89.88;47.13;;;;;;;;;;5021599;28;20373;-57
2023/09/13 07:18:00;;;;;;;88.60;45.15;;;;;;;;;;5022011;28;20116;-58
2023/09/13 07:20:26;;;;;;;84.35;45.97;;;;;;;;;;5014632;28;20045;-58
2023/09/13 07:22:53;;;;;;;85.25;47.13;;;;;;;;;;5020826;28;20084;-60
2023/09/13 07:25:19;;;;;;;82.18;44.55;;;;;;;;;;5016738;28;20383;-61
2023/09/13 07:27:45;;;;;;;78.18;41.78;;;;;;;;;;5019271;28;20044;-59
2023/09/13 07:30:12;;;;;;;88.25;43.53;;;;;;;;;;5014992;28;20373;-60
2023/09/13 07:32:38;;;;;;;88.85;43.92;;;;;;;;;;5013547;28;20046;-60
2023/09/13 07:35:04;;;;;;;93.15;44.85;;;;;;;;;;5025980;28;20191;-60
2023/09/13 07:37:30;;;;;;;86.72;43.50;;;;;;;;;;5033829;28;20048;-60
2023/09/13 07:39:57;;;;;;;95.32;44.17;;;;;;;;;;5037494;28;20132;-60
2023/09/13 07:42:23;;;;;;;81.10;42.15;;;;;;;;;;5037292;28;20080;-61
2023/09/13 07:44:49;;;;;;;74.75;41.05;;;;;;;;;;5030589;28;20029;-60
2023/09/13 07:47:15;;;;;;;75.95;39.60;;;;;;;;;;5035161;28;20063;-60
2023/09/13 07:49:41;;;;;;;66.43;36.13;;;;;;;;;;5033120;28;20038;-61
2023/09/13 07:52:07;;;;;;;63.42;34.10;;;;;;;;;;5038589;28;20336;-60
2023/09/13 07:54:33;;;;;;;56.03;33.20;;;;;;;;;;5037553;28;20103;-60
2023/09/13 07:56:59;;;;;;;54.10;31.75;;;;;;;;;;5033126;28;20033;-58
2023/09/13 07:59:25;;;;;;;53.97;32.05;;;;;;;;;;5033949;28;20044;-57
2023/09/13 08:01:51;;;;;;;51.05;30.95;;;;;;;;;;5031305;28;20063;-58
2023/09/13 08:04:18;;;;;;;50.58;30.77;;;;;;;;;;5034003;28;20030;-57
2023/09/13 08:06:45;;;;;;;52.90;31.58;;;;;;;;;;5035003;28;20029;-58
2023/09/13 08:09:14;;;;;;;54.95;31.88;;;;;;;;;;5036658;28;20034;-58
2023/09/13 08:11:40;;;;;;;52.20;31.88;;;;;;;;;;5035488;28;20182;-58
2023/09/13 08:14:06;;;;;;;58.65;34.60;;;;;;;;;;5025458;28;20162;-58
2023/09/13 08:16:32;;;;;;;61.45;34.00;;;;;;;;;;5036394;28;20034;-58
2023/09/13 08:18:58;;;;;;;55.78;32.70;;;;;;;;;;5026749;28;20041;-57
2023/09/13 08:21:24;;;;;;;61.17;34.00;;;;;;;;;;5027657;28;20045;-58
2023/09/13 08:23:50;;;;;;;59.50;34.17;;;;;;;;;;5034274;28;20145;-58
2023/09/13 08:26:19;;;;;;;55.33;32.42;;;;;;;;;;5031398;28;20560;-58
2023/09/13 08:28:45;;;;;;;66.05;34.70;;;;;;;;;;5041133;28;20444;-58
2023/09/13 08:31:11;;;;;;;63.58;35.03;;;;;;;;;;5028727;28;20405;-58
2023/09/13 08:33:37;;;;;;;59.60;33.58;;;;;;;;;;5026099;28;20044;-59
2023/09/13 08:36:04;;;;;;;58.58;33.55;;;;;;;;;;5023503;28;20041;-58
2023/09/13 08:38:30;;;;;;;60.40;33.83;;;;;;;;;;5028616;28;20358;-58
2023/09/13 08:40:56;;;;;;;56.67;32.42;;;;;;;;;;5030855;28;20512;-58
2023/09/13 08:43:22;;;;;;;50.47;29.35;;;;;;;;;;5028345;28;20029;-58
2023/09/13 08:45:49;;;;;;;55.60;30.45;;;;;;;;;;5026533;28;20073;-59
2023/09/13 08:48:18;;;;;;;46.40;28.50;;;;;;;;;;5027225;28;20136;-58
2023/09/13 08:50:44;;;;;;;52.67;29.33;;;;;;;;;;5024059;28;20035;-58
2023/09/13 08:53:12;;;;;;;45.55;27.30;;;;;;;;;;5033076;28;20046;-58
2023/09/13 08:55:39;;;;;;;40.60;25.95;;;;;;;;;;5025710;28;20547;-58
2023/09/13 08:58:05;;;;;;;44.97;26.55;;;;;;;;;;5027303;28;20508;-59
2023/09/13 09:00:34;;;;;;;43.90;25.98;;;;;;;;;;5033024;28;20052;-59
2023/09/13 09:03:02;;;;;;;47.13;26.20;;;;;;;;;;5032145;28;20048;-58
2023/09/13 09:05:30;;;;;;;46.35;27.58;;;;;;;;;;5026051;28;20046;-59
2023/09/13 09:07:57;;;;;;;36.80;23.95;;;;;;;;;;5026509;28;20044;-59
2023/09/13 09:10:24;;;;;;;40.10;25.75;;;;;;;;;;5027864;28;20040;-58
2023/09/13 09:12:53;;;;;;;40.17;26.05;;;;;;;;;;5026753;28;20233;-58
2023/09/13 09:15:19;;;;;;;42.55;25.50;;;;;;;;;;5035240;28;20559;-58
2023/09/13 09:17:48;;;;;;;40.28;25.13;;;;;;;;;;5037769;28;20087;-58
2023/09/13 09:20:14;;;;;;;45.83;24.60;;;;;;;;;;5026012;28;20037;-59
2023/09/13 09:22:41;;;;;;;46.95;24.52;;;;;;;;;;5016558;28;20045;-58
2023/09/13 09:25:11;;;;;;;39.65;24.30;;;;;;;;;;5018670;28;20040;-60
2023/09/13 09:27:38;;;;;;;38.60;24.38;;;;;;;;;;5019501;28;20124;-61
2023/09/13 09:30:05;;;;;;;43.22;24.40;;;;;;;;;;5021242;28;20034;-61
2023/09/13 09:32:31;;;;;;;43.25;25.58;;;;;;;;;;5024078;28;20439;-61
2023/09/13 09:34:59;;;;;;;42.35;24.52;;;;;;;;;;5025141;28;20045;-61
2023/09/13 09:37:29;;;;;;;39.72;24.40;;;;;;;;;;5029532;28;20067;-59
2023/09/13 09:39:55;;;;;;;42.88;25.75;;;;;;;;;;5030725;28;20073;-59
2023/09/13 09:42:21;;;;;;;36.30;24.13;;;;;;;;;;5024311;28;20256;-61
2023/09/13 09:44:48;;;;;;;34.08;23.15;;;;;;;;;;5027019;28;20087;-61
2023/09/13 09:47:14;;;;;;;44.80;24.88;;;21.50;99.90;;;;;;5028017;28;20042;-61
2023/09/13 09:49:42;;;;;;;33.78;21.75;;;21.10;99.90;;;;;;5025580;28;20720;-60
2023/09/13 09:52:11;;;;;;;15.77;8.60;;;;;;;;;;5028552;28;20073;-60
2023/09/13 09:54:39;;;;;;;6.13;4.20;;;19.40;99.90;;;;;;5033977;28;20331;-61
2023/09/13 09:57:05;;;;;;;8.45;4.32;;;18.80;99.90;;;;;;5035340;28;20025;-61
2023/09/13 09:59:33;;;;;;;5.78;4.07;;;18.00;99.90;;;;;;5019688;28;20033;-60
2023/09/13 10:02:00;;;;;;;12.90;5.50;;;17.30;99.90;;;;;;5015703;28;20033;-60
2023/09/13 10:04:26;;;;;;;10.70;5.70;;;17.10;99.90;;;;;;5024129;28;20110;-60
2023/09/13 10:07:03;;;;;;;12.15;4.90;;;16.80;99.90;;;;;;5021611;28;20493;-60
2023/09/13 10:09:42;;;;;;;8.20;4.90;;;;;;;;;;5027899;28;20041;-61
2023/09/13 10:12:09;;;;;;;8.95;5.47;;;16.90;99.90;;;;;;5026262;28;20052;-61
2023/09/13 10:14:39;;;;;;;8.82;5.60;;;16.90;99.90;;;;;;5032462;28;20033;-61
2023/09/13 10:17:09;;;;;;;8.45;5.28;;;;;;;;;;5030877;28;20079;-61
2023/09/13 10:19:35;;;;;;;7.88;5.15;;;;;;;;;;5032129;28;20568;-60
2023/09/13 10:22:04;;;;;;;6.75;5.22;;;16.80;99.90;;;;;;5030746;28;20059;-60
2023/09/13 10:24:40;;;;;;;9.05;5.53;;;;;;;;;;5009866;28;20346;-60
2023/09/13 10:27:09;;;;;;;6.70;4.43;;;17.10;99.90;;;;;;5015821;28;20095;-61
2023/09/13 10:29:56;;;;;;;7.90;4.18;;;16.60;99.90;;;;;;5020981;28;20475;-61
2023/09/13 10:32:24;;;;;;;6.07;3.13;;;;;;;;;;5012910;28;20128;-61
2023/09/13 10:34:54;;;;;;;7.65;3.05;;;;;;;;;;5005025;28;20081;-60
2023/09/13 10:37:45;;;;;;;6.82;3.45;;;;;;;;;;5022080;28;20037;-60
2023/09/13 10:40:11;;;;;;;5.35;3.22;;;;;;;;;;5013013;28;20042;-61
2023/09/13 10:42:43;;;;;;;4.60;3.10;;;;;;;;;;5012166;28;20048;-61
2023/09/13 10:45:10;;;;;;;10.10;3.70;;;;;;;;;;5017195;28;20593;-61
2023/09/13 10:47:39;;;;;;;5.78;3.40;;;;;;;;;;5030453;28;20041;-59
2023/09/13 10:50:07;;;;;;;6.10;3.40;;;17.40;99.90;;;;;;5026045;28;20045;-59
2023/09/13 10:52:34;;;;;;;5.63;4.18;;;17.40;99.90;;;;;;5031686;28;20120;-58
2023/09/13 10:55:04;;;;;;;7.15;3.08;;;17.50;99.90;;;;;;5029056;28;20056;-59
2023/09/13 10:57:32;;;;;;;5.93;3.63;;;;;;;;;;5019232;28;20052;-60
2023/09/13 10:59:59;;;;;;;6.15;3.17;;;16.80;99.90;;;;;;5024072;28;20040;-61
2023/09/13 11:02:25;;;;;;;5.38;2.80;;;17.30;99.90;;;;;;5026583;28;20057;-60
2023/09/13 11:04:51;;;;;;;5.80;2.95;;;17.60;99.90;;;;;;5027884;28;20044;-61
2023/09/13 11:07:18;;;;;;;4.65;2.33;;;;;;;;;;5026410;28;20140;-61
2023/09/13 11:09:46;;;;;;;6.43;2.50;;;;;;;;;;5032159;28;20345;-61
2023/09/13 11:12:12;;;;;;;4.75;2.30;;;17.60;99.90;;;;;;5036461;28;20459;-61
2023/09/13 11:14:46;;;;;;;5.35;2.50;;;17.70;99.90;;;;;;5035755;28;20112;-60
2023/09/13 11:17:13;;;;;;;;;;;;;;;;;;5029365;28;20039;-61
2023/09/13 11:19:39;;;;;;;6.70;2.90;;;;;;;;;;5028894;28;19913;-61
2023/09/13 11:22:06;;;;;;;3.63;2.40;;;17.80;99.90;;;;;;5031402;28;20033;-61
2023/09/13 11:24:39;;;;;;;5.40;2.33;;;18.10;99.90;;;;;;5032653;28;20059;-61
2023/09/13 11:27:12;;;;;;;4.68;2.10;;;18.20;99.90;;;;;;5036790;28;20049;-61
2023/09/13 11:29:43;;;;;;;5.45;2.00;;;18.20;99.90;;;;;;5031887;28;20057;-61
2023/09/13 11:32:17;;;;;;;3.88;1.88;;;;;;;;;;5027580;28;20168;-61
2023/09/13 11:34:45;;;;;;;5.32;2.10;;;;;;;;;;5031529;28;20329;-61
2023/09/13 11:37:13;;;;;;;4.95;2.28;;;;;;;;;;5030121;28;20531;-61
2023/09/13 11:39:39;;;;;;;4.63;2.03;;;;;;;;;;5031851;28;20041;-61
2023/09/13 11:42:07;;;;;;;4.95;2.20;;;;;;;;;;5028103;28;20064;-61
2023/09/13 11:44:33;;;;;;;3.78;2.00;;;;;;;;;;5030351;28;20037;-61
2023/09/13 11:46:59;;;;;;;4.60;2.08;;;;;;;;;;5056361;28;20156;-61
2023/09/13 11:49:26;;;;;;;4.78;2.10;;;18.50;99.90;;;;;;5037385;28;20064;-60
2023/09/13 11:51:59;;;;;;;4.45;2.10;;;18.80;99.90;;;;;;5034754;28;20037;-60
2023/09/13 11:54:26;;;;;;;4.28;2.20;;;18.90;99.90;;;;;;5026517;28;20374;-61
2023/09/13 11:56:54;;;;;;;4.65;2.08;;;18.90;99.90;;;;;;5021107;28;20148;-60
2023/09/13 11:59:24;;;;;;;3.40;2.22;;;18.90;99.90;;;;;;5029118;28;20056;-60
2023/09/13 12:01:51;;;;;;;6.40;3.17;;;19.00;99.90;;;;;;5013169;28;21757;-60
2023/09/13 12:04:19;;;;;;;5.07;2.35;;;19.10;99.90;;;;;;5029145;28;20075;-60
2023/09/13 12:06:47;;;;;;;4.32;2.30;;;18.90;99.90;;;;;;5031148;28;20514;-58
2023/09/13 12:09:16;;;;;;;5.32;2.13;;;18.90;99.90;;;;;;5025110;28;20409;-58
2023/09/13 12:11:42;;;;;;;5.07;2.00;;;19.00;99.90;;;;;;5034154;28;20040;-59
2023/09/13 12:14:11;;;;;;;4.35;2.10;;;19.00;99.90;;;;;;5027351;28;20034;-59
2023/09/13 12:16:37;;;;;;;5.57;2.88;;;19.00;99.90;;;;;;5026894;28;20036;-58
2023/09/13 12:19:05;;;;;;;7.75;4.15;;;18.90;99.90;;;;;;5033134;28;20037;-58
2023/09/13 12:21:31;;;;;;;6.90;3.80;;;18.80;99.90;;;;;;5037447;28;20428;-59
2023/09/13 12:23:57;;;;;;;6.00;3.63;;;18.70;99.90;;;;;;5023997;28;20040;-58
2023/09/13 12:26:24;;;;;;;4.75;4.00;;;18.80;99.90;;;;;;5015561;28;20114;-59
2023/09/13 12:28:50;;;;;;;6.25;4.07;;;18.80;99.90;;;;;;5035451;28;20037;-58
2023/09/13 12:31:16;;;;;;;6.50;3.90;;;18.80;99.90;;;;;;5001585;28;20120;-58
2023/09/13 12:33:44;;;;;;;7.53;3.95;;;18.60;99.90;;;;;;5002461;28;20034;-58
2023/09/13 12:36:11;;;;;;;5.38;3.75;;;18.70;99.90;;;;;;5001502;28;20454;-58
2023/09/13 12:38:42;;;;;;;5.38;3.15;;;18.80;99.90;;;;;;5018902;28;20404;-57
2023/09/13 12:41:28;;;;;;;4.32;2.67;;;18.90;99.90;;;;;;5022322;28;20034;-59
2023/09/13 12:43:54;;;;;;;4.78;2.10;;;19.00;99.90;;;;;;5001165;28;20042;-58
2023/09/13 12:46:21;;;;;;;4.30;2.35;;;18.90;99.90;;;;;;5005209;28;20044;-58
2023/09/13 12:48:49;;;;;;;4.35;2.00;;;18.90;99.90;;;;;;5002068;28;20038;-58
2023/09/13 12:51:21;;;;;;;3.45;1.70;;;19.00;99.90;;;;;;5004055;28;20338;-58
2023/09/13 12:53:49;;;;;;;2.97;1.15;;;18.90;99.90;;;;;;5001824;28;20683;-58
2023/09/13 12:56:15;;;;;;;3.53;1.27;;;19.00;99.90;;;;;;5003699;28;20104;-58
2023/09/13 12:58:52;;;;;;;1.80;1.10;;;18.90;99.90;;;;;;5004975;28;20421;-58
2023/09/13 13:01:18;;;;;;;2.75;1.05;;;19.10;99.90;;;;;;5003042;28;20413;-58
2023/09/13 13:04:06;;;;;;;3.47;1.10;;;19.10;99.90;;;;;;5005424;28;20132;-59
2023/09/13 13:06:37;;;;;;;1.60;0.80;;;19.10;99.90;;;;;;4995019;28;20038;-58
2023/09/13 13:09:05;;;;;;;3.20;1.00;;;19.10;99.90;;;;;;5003819;28;20435;-58
2023/09/13 13:11:40;;;;;;;2.17;0.90;;;19.10;99.90;;;;;;5005204;28;20561;-57
2023/09/13 13:14:13;;;;;;;5.53;3.50;;;19.30;99.90;;;;;;5003691;28;20034;-58
2023/09/13 13:16:39;;;;;;;2.72;1.00;;;19.20;99.90;;;;;;5006020;28;20121;-58
2023/09/13 13:19:05;;;;;;;1.65;0.70;;;19.10;99.90;;;;;;5007169;28;20509;-58
2023/09/13 13:21:31;;;;;;;1.90;0.88;;;19.10;99.90;;;;;;5004295;28;20026;-58
2023/09/13 13:23:57;;;;;;;1.33;0.93;;;19.10;99.90;;;;;;5013070;28;20032;-57
2023/09/13 13:26:22;;;;;;;2.35;0.93;;;19.10;99.90;;;;;;5027841;28;20057;-60
2023/09/13 13:28:48;;;;;;;2.22;0.82;;;19.20;99.90;;;;;;5003770;28;20057;-60
2023/09/13 13:31:15;;;;;;;2.03;0.70;;;19.30;99.90;;;;;;5012769;28;20030;-59
2023/09/13 13:33:43;;;;;;;1.75;0.88;;;19.20;99.90;;;;;;5009122;28;20668;-60
2023/09/13 13:36:09;;;;;;;2.83;0.85;;;19.30;99.90;;;;;;5019519;28;20124;-59
2023/09/13 13:38:34;;;;;;;3.65;1.00;;;19.30;99.90;;;;;;5027518;28;20080;-59
2023/09/13 13:41:04;;;;;;;1.48;0.82;;;19.40;99.90;;;;;;5023558;28;20069;-59
2023/09/13 13:43:31;;;;;;;2.75;0.88;;;19.50;99.90;;;;;;5025172;28;20041;-59
2023/09/13 13:45:56;;;;;;;3.75;0.90;;;19.50;99.90;;;;;;5023437;28;20103;-59
2023/09/13 13:48:22;;;;;;;1.55;0.80;;;19.40;99.90;;;;;;5023740;28;20037;-58
2023/09/13 13:50:47;;;;;;;1.35;0.80;;;19.50;99.90;;;;;;5027025;28;20032;-59